createdAt,value
2017-11-09T00:00:41.712Z,1010.23
2017-11-09T00:01:43.150Z,1010.25
2017-11-09T00:02:44.565Z,1010.24
2017-11-09T00:03:45.993Z,1010.20
2017-11-09T00:04:47.426Z,1010.22
2017-11-09T00:05:48.851Z,1010.23
2017-11-09T00:06:50.267Z,1010.24
2017-11-09T00:07:51.692Z,1010.23
2017-11-09T00:08:53.111Z,1010.24
2017-11-09T00:09:54.531Z,1010.28
2017-11-09T00:10:55.948Z,1010.28
2017-11-09T00:11:57.368Z,1010.28
2017-11-09T00:12:58.798Z,1010.30
2017-11-09T00:14:00.215Z,1010.24
2017-11-09T00:15:01.637Z,1010.25
2017-11-09T00:16:03.057Z,1010.27
2017-11-09T00:17:04.481Z,1010.19
2017-11-09T00:18:05.899Z,1010.22
2017-11-09T00:19:07.321Z,1010.15
2017-11-09T00:20:08.757Z,1010.16
2017-11-09T00:21:10.168Z,1010.11
2017-11-09T00:22:11.591Z,1010.15
2017-11-09T00:23:13.019Z,1010.13
2017-11-09T00:24:14.448Z,1010.10
2017-11-09T00:25:15.877Z,1010.15
2017-11-09T00:26:17.297Z,1010.20
2017-11-09T00:27:18.730Z,1010.20
2017-11-09T00:28:20.139Z,1010.18
2017-11-09T00:29:21.568Z,1010.19
2017-11-09T00:30:22.997Z,1010.17
2017-11-09T00:31:24.416Z,1010.16
2017-11-09T00:32:25.841Z,1010.12
2017-11-09T00:33:27.261Z,1010.08
2017-11-09T00:34:28.684Z,1010.11
2017-11-09T00:35:30.121Z,1010.16
2017-11-09T00:36:31.528Z,1010.16
2017-11-09T00:37:32.956Z,1010.16
2017-11-09T00:38:34.368Z,1010.20
2017-11-09T00:39:35.782Z,1010.21
2017-11-09T00:40:37.196Z,1010.21
2017-11-09T00:41:38.612Z,1010.20
2017-11-09T00:42:40.100Z,1010.23
2017-11-09T00:43:41.502Z,1010.22
2017-11-09T00:44:42.930Z,1010.21
2017-11-09T00:45:44.350Z,1010.23
2017-11-09T00:46:45.771Z,1010.20
2017-11-09T00:47:47.184Z,1010.24
2017-11-09T00:48:48.610Z,1010.28
2017-11-09T00:49:50.027Z,1010.24
2017-11-09T00:50:51.449Z,1010.31
2017-11-09T00:51:52.871Z,1010.35
2017-11-09T00:52:54.291Z,1010.36
2017-11-09T00:53:55.714Z,1010.36
2017-11-09T00:54:57.137Z,1010.45
2017-11-09T00:55:58.560Z,1010.40
2017-11-09T00:56:59.986Z,1010.41
2017-11-09T00:58:01.404Z,1010.36
2017-11-09T00:59:02.820Z,1010.37
2017-11-09T01:00:04.254Z,1010.38
2017-11-09T01:01:05.684Z,1010.36
2017-11-09T01:02:07.097Z,1010.33
2017-11-09T01:03:08.522Z,1010.35
2017-11-09T01:04:09.939Z,1010.40
2017-11-09T01:05:11.356Z,1010.41
2017-11-09T01:06:12.776Z,1010.42
2017-11-09T01:07:14.200Z,1010.41
2017-11-09T01:08:15.619Z,1010.44
2017-11-09T01:09:17.048Z,1010.49
2017-11-09T01:10:18.475Z,1010.46
2017-11-09T01:11:19.901Z,1010.52
2017-11-09T01:12:21.326Z,1010.51
2017-11-09T01:13:22.747Z,1010.56
2017-11-09T01:14:24.168Z,1010.56
2017-11-09T01:15:25.595Z,1010.54
2017-11-09T01:16:27.006Z,1010.56
2017-11-09T01:17:28.425Z,1010.54
2017-11-09T01:18:29.856Z,1010.53
2017-11-09T01:19:31.274Z,1010.52
2017-11-09T01:20:32.697Z,1010.48
2017-11-09T01:21:34.124Z,1010.46
2017-11-09T01:22:35.544Z,1010.48
2017-11-09T01:23:36.963Z,1010.49
2017-11-09T01:24:38.379Z,1010.47
2017-11-09T01:25:39.799Z,1010.53
2017-11-09T01:26:41.218Z,1010.56
2017-11-09T01:27:42.637Z,1010.50
2017-11-09T01:28:44.052Z,1010.51
2017-11-09T01:29:45.477Z,1010.51
2017-11-09T01:30:46.894Z,1010.49
2017-11-09T01:31:48.309Z,1010.49
2017-11-09T01:32:49.725Z,1010.48
2017-11-09T01:33:51.147Z,1010.49
2017-11-09T01:34:52.568Z,1010.50
2017-11-09T01:35:53.991Z,1010.49
2017-11-09T01:36:55.410Z,1010.53
2017-11-09T01:37:56.830Z,1010.51
2017-11-09T01:38:58.240Z,1010.55
2017-11-09T01:39:59.662Z,1010.57
2017-11-09T01:41:01.075Z,1010.55
2017-11-09T01:42:02.497Z,1010.64
2017-11-09T01:43:03.914Z,1010.60
2017-11-09T01:44:05.340Z,1010.60
2017-11-09T01:45:06.853Z,1010.60
2017-11-09T01:46:08.275Z,1010.59
2017-11-09T01:47:09.698Z,1010.60
2017-11-09T01:48:11.123Z,1010.64
2017-11-09T01:49:12.536Z,1010.61
2017-11-09T01:50:13.954Z,1010.60
2017-11-09T01:51:15.387Z,1010.57
2017-11-09T01:52:16.803Z,1010.60
2017-11-09T01:53:18.224Z,1010.56
2017-11-09T01:54:19.647Z,1010.53
2017-11-09T01:55:21.077Z,1010.56
2017-11-09T01:56:22.500Z,1010.56
2017-11-09T01:57:23.929Z,1010.54
2017-11-09T01:58:25.350Z,1010.56
2017-11-09T01:59:26.764Z,1010.54
2017-11-09T02:00:28.177Z,1010.58
2017-11-09T02:01:29.598Z,1010.62
2017-11-09T02:02:31.021Z,1010.61
2017-11-09T02:03:32.439Z,1010.59
2017-11-09T02:04:33.868Z,1010.60
2017-11-09T02:05:35.280Z,1010.62
2017-11-09T02:06:36.696Z,1010.63
2017-11-09T02:07:38.117Z,1010.64
2017-11-09T02:08:39.531Z,1010.60
2017-11-09T02:09:40.962Z,1010.61
2017-11-09T02:10:42.375Z,1010.60
2017-11-09T02:11:43.787Z,1010.65
2017-11-09T02:12:45.201Z,1010.66
2017-11-09T02:13:46.616Z,1010.65
2017-11-09T02:14:48.037Z,1010.62
2017-11-09T02:15:49.458Z,1010.69
2017-11-09T02:16:50.876Z,1010.70
2017-11-09T02:17:52.304Z,1010.62
2017-11-09T02:18:53.726Z,1010.67
2017-11-09T02:19:55.141Z,1010.64
2017-11-09T02:20:56.518Z,1010.68
2017-11-09T02:21:57.939Z,1010.66
2017-11-09T02:22:59.396Z,1010.66
2017-11-09T02:24:00.810Z,1010.63
2017-11-09T02:25:02.239Z,1010.68
2017-11-09T02:26:03.650Z,1010.66
2017-11-09T02:27:05.073Z,1010.61
2017-11-09T02:28:06.490Z,1010.65
2017-11-09T02:29:07.910Z,1010.64
2017-11-09T02:30:09.333Z,1010.63
2017-11-09T02:31:10.760Z,1010.64
2017-11-09T02:32:12.185Z,1010.63
2017-11-09T02:33:13.609Z,1010.65
2017-11-09T02:34:15.032Z,1010.65
2017-11-09T02:35:16.445Z,1010.67
2017-11-09T02:36:17.861Z,1010.64
2017-11-09T02:37:19.285Z,1010.71
2017-11-09T02:38:20.704Z,1010.66
2017-11-09T02:39:22.120Z,1010.68
2017-11-09T02:40:23.550Z,1010.70
2017-11-09T02:41:24.975Z,1010.74
2017-11-09T02:42:26.394Z,1010.79
2017-11-09T02:43:27.806Z,1010.79
2017-11-09T02:44:29.225Z,1010.85
2017-11-09T02:45:30.633Z,1010.80
2017-11-09T02:46:32.049Z,1010.86
2017-11-09T02:47:33.467Z,1010.85
2017-11-09T02:48:34.886Z,1010.85
2017-11-09T02:49:36.319Z,1010.83
2017-11-09T02:50:37.734Z,1010.82
2017-11-09T02:51:39.147Z,1010.81
2017-11-09T02:52:40.565Z,1010.84
2017-11-09T02:53:41.984Z,1010.85
2017-11-09T02:54:43.405Z,1010.82
2017-11-09T02:55:44.823Z,1010.84
2017-11-09T02:56:46.259Z,1010.85
2017-11-09T02:57:47.690Z,1010.86
2017-11-09T02:58:49.101Z,1010.85
2017-11-09T02:59:50.519Z,1010.83
2017-11-09T03:00:51.938Z,1010.88
2017-11-09T03:01:53.359Z,1010.86
2017-11-09T03:02:54.734Z,1010.87
2017-11-09T03:03:56.162Z,1010.86
2017-11-09T03:04:57.579Z,1010.82
2017-11-09T03:05:59.000Z,1010.80
2017-11-09T03:07:00.419Z,1010.81
2017-11-09T03:08:01.839Z,1010.81
2017-11-09T03:09:03.267Z,1010.89
2017-11-09T03:10:04.685Z,1010.85
2017-11-09T03:11:06.100Z,1010.82
2017-11-09T03:12:07.519Z,1010.82
2017-11-09T03:13:08.944Z,1010.89
2017-11-09T03:14:10.369Z,1010.83
2017-11-09T03:15:11.785Z,1010.83
2017-11-09T03:16:13.208Z,1010.81
2017-11-09T03:17:14.629Z,1010.78
2017-11-09T03:18:16.053Z,1010.80
2017-11-09T03:19:17.471Z,1010.80
2017-11-09T03:20:18.885Z,1010.79
2017-11-09T03:21:20.307Z,1010.78
2017-11-09T03:22:21.716Z,1010.80
2017-11-09T03:23:23.128Z,1010.79
2017-11-09T03:24:24.548Z,1010.76
2017-11-09T03:25:25.968Z,1010.77
2017-11-09T03:26:27.398Z,1010.75
2017-11-09T03:27:28.808Z,1010.73
2017-11-09T03:28:30.228Z,1010.74
2017-11-09T03:29:31.655Z,1010.75
2017-11-09T03:30:33.078Z,1010.74
2017-11-09T03:31:34.493Z,1010.76
2017-11-09T03:32:35.914Z,1010.73
2017-11-09T03:33:37.328Z,1010.68
2017-11-09T03:34:38.749Z,1010.70
2017-11-09T03:35:40.170Z,1010.72
2017-11-09T03:36:41.589Z,1010.72
2017-11-09T03:37:43.015Z,1010.73
2017-11-09T03:38:44.440Z,1010.75
2017-11-09T03:39:45.862Z,1010.76
2017-11-09T03:40:47.285Z,1010.76
2017-11-09T03:41:48.706Z,1010.76
2017-11-09T03:42:50.121Z,1010.74
2017-11-09T03:43:51.537Z,1010.77
2017-11-09T03:44:52.967Z,1010.76
2017-11-09T03:45:54.384Z,1010.77
2017-11-09T03:46:55.798Z,1010.76
2017-11-09T03:47:57.215Z,1010.74
2017-11-09T03:48:58.636Z,1010.69
2017-11-09T03:50:00.046Z,1010.74
2017-11-09T03:51:01.470Z,1010.71
2017-11-09T03:52:02.895Z,1010.72
2017-11-09T03:53:04.318Z,1010.72
2017-11-09T03:54:05.747Z,1010.77
2017-11-09T03:55:07.169Z,1010.79
2017-11-09T03:56:08.590Z,1010.80
2017-11-09T03:57:10.014Z,1010.81
2017-11-09T03:58:11.436Z,1010.82
2017-11-09T03:59:12.856Z,1010.84
2017-11-09T04:00:14.282Z,1010.88
2017-11-09T04:01:15.699Z,1010.91
2017-11-09T04:02:17.120Z,1010.91
2017-11-09T04:03:18.542Z,1010.88
2017-11-09T04:04:19.960Z,1010.89
2017-11-09T04:05:21.380Z,1010.95
2017-11-09T04:06:22.803Z,1010.93
2017-11-09T04:07:24.219Z,1010.95
2017-11-09T04:08:25.637Z,1010.90
2017-11-09T04:09:27.058Z,1010.90
2017-11-09T04:10:28.484Z,1010.92
2017-11-09T04:11:29.902Z,1010.92
2017-11-09T04:12:31.326Z,1010.90
2017-11-09T04:13:32.753Z,1010.96
2017-11-09T04:14:34.175Z,1010.94
2017-11-09T04:15:35.592Z,1010.94
2017-11-09T04:16:37.021Z,1010.88
2017-11-09T04:17:38.437Z,1010.91
2017-11-09T04:18:39.873Z,1010.93
2017-11-09T04:19:41.293Z,1010.91
2017-11-09T04:20:42.709Z,1010.89
2017-11-09T04:21:44.131Z,1010.90
2017-11-09T04:22:45.551Z,1010.91
2017-11-09T04:23:46.971Z,1010.84
2017-11-09T04:24:48.385Z,1010.83
2017-11-09T04:25:49.807Z,1010.82
2017-11-09T04:26:51.224Z,1010.82
2017-11-09T04:27:52.641Z,1010.80
2017-11-09T04:28:54.055Z,1010.83
2017-11-09T04:29:55.484Z,1010.83
2017-11-09T04:30:56.948Z,1010.82
2017-11-09T04:31:58.369Z,1010.78
2017-11-09T04:32:59.790Z,1010.84
2017-11-09T04:34:01.211Z,1010.91
2017-11-09T04:35:02.628Z,1010.82
2017-11-09T04:36:04.047Z,1010.86
2017-11-09T04:37:05.470Z,1010.89
2017-11-09T04:38:06.887Z,1010.87
2017-11-09T04:39:08.950Z,1010.87
2017-11-09T04:40:10.364Z,1010.85
2017-11-09T04:41:11.783Z,1010.85
2017-11-09T04:42:13.215Z,1010.87
2017-11-09T04:43:14.623Z,1010.88
2017-11-09T04:44:16.051Z,1010.86
2017-11-09T04:45:17.467Z,1010.87
2017-11-09T04:46:18.890Z,1010.84
2017-11-09T04:47:20.310Z,1010.90
2017-11-09T04:48:21.744Z,1010.89
2017-11-09T04:49:23.167Z,1010.86
2017-11-09T04:50:24.583Z,1010.87
2017-11-09T04:51:26.032Z,1010.87
2017-11-09T04:52:27.457Z,1010.89
2017-11-09T04:53:28.881Z,1010.95
2017-11-09T04:54:30.303Z,1010.89
2017-11-09T04:55:31.725Z,1010.91
2017-11-09T04:56:33.162Z,1010.88
2017-11-09T04:57:34.566Z,1010.89
2017-11-09T04:58:35.978Z,1010.91
2017-11-09T04:59:37.398Z,1010.96
2017-11-09T05:00:38.824Z,1010.92
2017-11-09T05:01:40.248Z,1010.89
2017-11-09T05:02:41.667Z,1010.92
2017-11-09T05:03:43.086Z,1010.87
2017-11-09T05:04:44.519Z,1010.89
2017-11-09T05:05:45.943Z,1010.86
2017-11-09T05:06:47.358Z,1010.84
2017-11-09T05:07:48.881Z,1010.83
2017-11-09T05:08:50.295Z,1010.86
2017-11-09T05:09:51.717Z,1010.84
2017-11-09T05:10:53.135Z,1010.81
2017-11-09T05:11:54.585Z,1010.83
2017-11-09T05:12:56.009Z,1010.85
2017-11-09T05:13:57.453Z,1010.84
2017-11-09T05:14:58.868Z,1010.83
2017-11-09T05:16:00.289Z,1010.83
2017-11-09T05:17:01.717Z,1010.79
2017-11-09T05:18:03.141Z,1010.77
2017-11-09T05:19:04.560Z,1010.78
2017-11-09T05:20:05.987Z,1010.84
2017-11-09T05:21:07.469Z,1010.84
2017-11-09T05:22:08.875Z,1010.86
2017-11-09T05:23:10.285Z,1010.85
2017-11-09T05:24:11.766Z,1010.87
2017-11-09T05:25:13.190Z,1010.91
2017-11-09T05:26:14.605Z,1010.91
2017-11-09T05:27:16.053Z,1010.93
2017-11-09T05:28:17.485Z,1010.94
2017-11-09T05:29:18.912Z,1010.92
2017-11-09T05:30:20.339Z,1010.96
2017-11-09T05:31:21.755Z,1010.99
2017-11-09T05:32:23.160Z,1010.96
2017-11-09T05:33:24.581Z,1010.96
2017-11-09T05:34:26.004Z,1010.94
2017-11-09T05:35:27.532Z,1010.96
2017-11-09T05:36:28.958Z,1010.95
2017-11-09T05:37:30.420Z,1010.96
2017-11-09T05:38:31.832Z,1010.92
2017-11-09T05:39:33.266Z,1010.97
2017-11-09T05:40:35.429Z,1010.96
2017-11-09T05:41:36.847Z,1010.95
2017-11-09T05:42:38.268Z,1010.93
2017-11-09T05:43:39.681Z,1010.92
2017-11-09T05:44:41.097Z,1010.90
2017-11-09T05:45:42.510Z,1010.91
2017-11-09T05:46:43.948Z,1010.88
2017-11-09T05:47:45.374Z,1010.87
2017-11-09T05:48:46.803Z,1010.91
2017-11-09T05:49:48.223Z,1010.90
2017-11-09T05:50:49.641Z,1010.94
2017-11-09T05:51:51.068Z,1010.96
2017-11-09T05:52:52.479Z,1011.00
2017-11-09T05:53:53.901Z,1011.01
2017-11-09T05:54:55.320Z,1011.03
2017-11-09T05:55:56.739Z,1010.99
2017-11-09T05:56:58.151Z,1011.03
2017-11-09T05:57:59.574Z,1010.98
2017-11-09T05:59:01.004Z,1010.94
2017-11-09T06:00:02.431Z,1010.96
2017-11-09T06:01:03.850Z,1011.02
2017-11-09T06:02:05.275Z,1010.95
2017-11-09T06:03:06.686Z,1010.99
2017-11-09T06:04:08.106Z,1010.96
2017-11-09T06:05:09.522Z,1010.94
2017-11-09T06:06:10.938Z,1010.95
2017-11-09T06:07:12.356Z,1010.93
2017-11-09T06:08:13.781Z,1010.99
2017-11-09T06:09:15.195Z,1010.95
2017-11-09T06:10:16.618Z,1011.03
2017-11-09T06:11:18.035Z,1011.04
2017-11-09T06:12:19.455Z,1011.06
2017-11-09T06:13:20.873Z,1011.01
2017-11-09T06:14:22.289Z,1011.03
2017-11-09T06:15:23.706Z,1011.00
2017-11-09T06:16:25.127Z,1011.00
2017-11-09T06:17:26.550Z,1011.00
2017-11-09T06:18:27.968Z,1010.95
2017-11-09T06:19:29.377Z,1010.98
2017-11-09T06:20:30.795Z,1010.97
2017-11-09T06:21:32.216Z,1010.99
2017-11-09T06:22:33.638Z,1010.99
2017-11-09T06:23:35.063Z,1011.01
2017-11-09T06:24:36.479Z,1011.06
2017-11-09T06:25:37.905Z,1011.08
2017-11-09T06:26:39.877Z,1011.06
2017-11-09T06:27:41.288Z,1011.04
2017-11-09T06:28:42.760Z,1011.00
2017-11-09T06:29:44.176Z,1011.05
2017-11-09T06:30:45.596Z,1011.04
2017-11-09T06:31:47.019Z,1011.01
2017-11-09T06:32:48.441Z,1011.05
2017-11-09T06:33:49.873Z,1011.06
2017-11-09T06:34:51.293Z,1011.05
2017-11-09T06:35:52.710Z,1011.07
2017-11-09T06:36:54.134Z,1011.11
2017-11-09T06:37:55.552Z,1011.11
2017-11-09T06:38:56.972Z,1011.10
2017-11-09T06:39:58.400Z,1011.14
2017-11-09T06:40:59.819Z,1011.09
2017-11-09T06:42:01.303Z,1011.13
2017-11-09T06:43:02.726Z,1011.11
2017-11-09T06:44:04.143Z,1011.12
2017-11-09T06:45:05.557Z,1011.16
2017-11-09T06:46:06.974Z,1011.20
2017-11-09T06:47:08.389Z,1011.22
2017-11-09T06:48:09.818Z,1011.20
2017-11-09T06:49:11.234Z,1011.22
2017-11-09T06:50:12.649Z,1011.23
2017-11-09T06:51:14.071Z,1011.23
2017-11-09T06:52:15.492Z,1011.24
2017-11-09T06:53:16.917Z,1011.24
2017-11-09T06:54:18.336Z,1011.26
2017-11-09T06:55:19.755Z,1011.23
2017-11-09T06:56:21.180Z,1011.25
2017-11-09T06:57:22.599Z,1011.30
2017-11-09T06:58:24.026Z,1011.26
2017-11-09T06:59:25.441Z,1011.28
2017-11-09T07:00:26.870Z,1011.31
2017-11-09T07:01:28.286Z,1011.35
2017-11-09T07:02:29.707Z,1011.28
2017-11-09T07:03:31.127Z,1011.31
2017-11-09T07:04:32.560Z,1011.33
2017-11-09T07:05:33.979Z,1011.36
2017-11-09T07:06:35.401Z,1011.32
2017-11-09T07:07:36.815Z,1011.44
2017-11-09T07:08:38.246Z,1011.38
2017-11-09T07:09:39.694Z,1011.40
2017-11-09T07:10:41.100Z,1011.40
2017-11-09T07:11:42.518Z,1011.39
2017-11-09T07:12:43.934Z,1011.49
2017-11-09T07:13:45.356Z,1011.47
2017-11-09T07:14:46.853Z,1011.46
2017-11-09T07:15:48.282Z,1011.49
2017-11-09T07:16:49.693Z,1011.48
2017-11-09T07:17:51.106Z,1011.46
2017-11-09T07:18:52.521Z,1011.53
2017-11-09T07:19:53.939Z,1011.51
2017-11-09T07:20:55.348Z,1011.51
2017-11-09T07:21:56.778Z,1011.56
2017-11-09T07:22:58.195Z,1011.55
2017-11-09T07:23:59.613Z,1011.56
2017-11-09T07:25:01.031Z,1011.59
2017-11-09T07:26:02.459Z,1011.57
2017-11-09T07:27:03.882Z,1011.60
2017-11-09T07:28:05.296Z,1011.63
2017-11-09T07:29:06.709Z,1011.66
2017-11-09T07:30:08.129Z,1011.67
2017-11-09T07:31:09.549Z,1011.71
2017-11-09T07:32:10.971Z,1011.74
2017-11-09T07:33:12.391Z,1011.71
2017-11-09T07:34:13.840Z,1011.76
2017-11-09T07:35:15.261Z,1011.72
2017-11-09T07:36:16.682Z,1011.70
2017-11-09T07:37:18.107Z,1011.66
2017-11-09T07:38:19.525Z,1011.67
2017-11-09T07:39:20.950Z,1011.64
2017-11-09T07:40:22.373Z,1011.69
2017-11-09T07:41:23.797Z,1011.69
2017-11-09T07:42:25.217Z,1011.69
2017-11-09T07:43:26.638Z,1011.69
2017-11-09T07:44:28.062Z,1011.69
2017-11-09T07:45:29.489Z,1011.68
2017-11-09T07:46:30.927Z,1011.69
2017-11-09T07:47:32.348Z,1011.68
2017-11-09T07:48:33.780Z,1011.63
2017-11-09T07:49:35.187Z,1011.65
2017-11-09T07:50:36.606Z,1011.64
2017-11-09T07:51:38.022Z,1011.60
2017-11-09T07:52:39.436Z,1011.61
2017-11-09T07:53:40.880Z,1011.63
2017-11-09T07:54:42.303Z,1011.61
2017-11-09T07:55:43.732Z,1011.66
2017-11-09T07:56:45.145Z,1011.66
2017-11-09T07:57:46.559Z,1011.66
2017-11-09T07:58:47.981Z,1011.68
2017-11-09T07:59:49.411Z,1011.66
2017-11-09T08:00:50.876Z,1011.73
2017-11-09T08:01:52.312Z,1011.70
2017-11-09T08:02:53.729Z,1011.72
2017-11-09T08:03:55.152Z,1011.75
2017-11-09T08:04:56.579Z,1011.72
2017-11-09T08:05:57.999Z,1011.67
2017-11-09T08:06:59.478Z,1011.72
2017-11-09T08:08:00.893Z,1011.67
2017-11-09T08:09:02.318Z,1011.74
2017-11-09T08:10:03.752Z,1011.73
2017-11-09T08:11:05.166Z,1011.77
2017-11-09T08:12:06.599Z,1011.77
2017-11-09T08:13:08.024Z,1011.73
2017-11-09T08:14:09.436Z,1011.73
2017-11-09T08:15:10.870Z,1011.72
2017-11-09T08:16:12.289Z,1011.74
2017-11-09T08:17:13.707Z,1011.78
2017-11-09T08:18:15.133Z,1011.74
2017-11-09T08:19:16.552Z,1011.83
2017-11-09T08:20:17.985Z,1011.86
2017-11-09T08:21:19.406Z,1011.83
2017-11-09T08:22:20.828Z,1011.85
2017-11-09T08:23:22.243Z,1011.84
2017-11-09T08:24:23.667Z,1011.91
2017-11-09T08:25:25.094Z,1011.91
2017-11-09T08:26:26.507Z,1011.90
2017-11-09T08:27:27.932Z,1011.94
2017-11-09T08:28:29.352Z,1012.00
2017-11-09T08:29:30.789Z,1011.98
2017-11-09T08:30:32.193Z,1011.97
2017-11-09T08:31:33.615Z,1011.99
2017-11-09T08:32:35.038Z,1012.01
2017-11-09T08:33:36.461Z,1012.02
2017-11-09T08:34:37.876Z,1012.03
2017-11-09T08:35:39.304Z,1012.05
2017-11-09T08:36:40.718Z,1012.06
2017-11-09T08:37:42.139Z,1012.10
2017-11-09T08:38:43.564Z,1012.06
2017-11-09T08:39:45.034Z,1012.05
2017-11-09T08:40:46.474Z,1012.10
2017-11-09T08:41:47.905Z,1012.12
2017-11-09T08:42:49.327Z,1012.14
2017-11-09T08:43:51.229Z,1012.18
2017-11-09T08:44:52.551Z,1012.13
2017-11-09T08:45:53.990Z,1012.14
2017-11-09T08:46:55.407Z,1012.16
2017-11-09T08:47:56.824Z,1012.15
2017-11-09T08:48:58.246Z,1012.13
2017-11-09T08:49:59.669Z,1012.16
2017-11-09T08:51:01.087Z,1012.15
2017-11-09T08:52:02.515Z,1012.19
2017-11-09T08:53:03.927Z,1012.10
2017-11-09T08:54:05.345Z,1012.09
2017-11-09T08:55:06.770Z,1012.11
2017-11-09T08:56:08.204Z,1012.11
2017-11-09T08:57:09.638Z,1012.09
2017-11-09T08:58:11.061Z,1012.07
2017-11-09T08:59:12.489Z,1012.09
2017-11-09T09:00:13.906Z,1012.11
2017-11-09T09:01:15.334Z,1012.10
2017-11-09T09:02:16.806Z,1012.13
2017-11-09T09:03:18.229Z,1012.10
2017-11-09T09:04:19.648Z,1012.09
2017-11-09T09:05:21.067Z,1012.08
2017-11-09T09:06:22.481Z,1012.10
2017-11-09T09:07:23.903Z,1012.13
2017-11-09T09:08:25.327Z,1012.15
2017-11-09T09:09:26.762Z,1012.14
2017-11-09T09:10:28.186Z,1012.17
2017-11-09T09:11:29.611Z,1012.20
2017-11-09T09:12:31.028Z,1012.16
2017-11-09T09:13:32.452Z,1012.20
2017-11-09T09:14:33.869Z,1012.17
2017-11-09T09:15:35.300Z,1012.15
2017-11-09T09:16:36.726Z,1012.17
2017-11-09T09:17:38.153Z,1012.18
2017-11-09T09:18:39.568Z,1012.19
2017-11-09T09:19:40.992Z,1012.18
2017-11-09T09:20:42.412Z,1012.19
2017-11-09T09:21:43.836Z,1012.19
2017-11-09T09:22:45.255Z,1012.18
2017-11-09T09:23:46.678Z,1012.18
2017-11-09T09:24:48.095Z,1012.18
2017-11-09T09:25:49.514Z,1012.21
2017-11-09T09:26:50.956Z,1012.18
2017-11-09T09:27:52.366Z,1012.09
2017-11-09T09:28:53.790Z,1012.07
2017-11-09T09:29:55.205Z,1012.05
2017-11-09T09:30:56.624Z,1012.06
2017-11-09T09:31:58.048Z,1012.03
2017-11-09T09:32:59.470Z,1012.13
2017-11-09T09:34:00.894Z,1012.10
2017-11-09T09:35:02.317Z,1012.07
2017-11-09T09:36:03.739Z,1012.09
2017-11-09T09:37:05.161Z,1012.13
2017-11-09T09:38:06.594Z,1012.08
2017-11-09T09:39:08.940Z,1012.10
2017-11-09T09:40:10.372Z,1012.07
2017-11-09T09:41:11.805Z,1012.06
2017-11-09T09:42:13.234Z,1012.13
2017-11-09T09:43:15.298Z,1012.09
2017-11-09T09:44:16.718Z,1012.16
2017-11-09T09:45:18.225Z,1012.14
2017-11-09T09:46:19.649Z,1012.17
2017-11-09T09:47:21.064Z,1012.14
2017-11-09T09:48:22.486Z,1012.13
2017-11-09T09:49:23.903Z,1012.12
2017-11-09T09:50:25.332Z,1012.10
2017-11-09T09:51:26.745Z,1012.11
2017-11-09T09:52:28.168Z,1012.15
2017-11-09T09:53:29.586Z,1012.13
2017-11-09T09:54:31.006Z,1012.07
2017-11-09T09:55:33.792Z,1012.09
2017-11-09T09:56:35.221Z,1012.09
2017-11-09T09:57:36.649Z,1012.13
2017-11-09T09:58:38.070Z,1012.08
2017-11-09T09:59:39.490Z,1012.07
2017-11-09T10:00:40.912Z,1012.08
2017-11-09T10:01:42.330Z,1012.17
2017-11-09T10:02:43.754Z,1012.11
2017-11-09T10:03:45.176Z,1012.12
2017-11-09T10:04:46.606Z,1012.13
2017-11-09T10:05:48.036Z,1012.16
2017-11-09T10:06:49.449Z,1012.13
2017-11-09T10:07:50.868Z,1012.12
2017-11-09T10:08:52.286Z,1012.10
2017-11-09T10:09:53.711Z,1012.15
2017-11-09T10:10:55.127Z,1012.16
2017-11-09T10:11:56.551Z,1012.18
2017-11-09T10:12:57.978Z,1012.15
2017-11-09T10:13:59.409Z,1012.17
2017-11-09T10:15:00.837Z,1012.17
2017-11-09T10:16:02.255Z,1012.18
2017-11-09T10:17:03.680Z,1012.18
2017-11-09T10:18:05.103Z,1012.11
2017-11-09T10:19:06.536Z,1012.16
2017-11-09T10:20:07.965Z,1012.18
2017-11-09T10:21:09.392Z,1012.17
2017-11-09T10:22:10.820Z,1012.15
2017-11-09T10:23:12.240Z,1012.12
2017-11-09T10:24:13.665Z,1012.12
2017-11-09T10:25:15.089Z,1012.12
2017-11-09T10:26:16.509Z,1012.10
2017-11-09T10:27:17.942Z,1012.11
2017-11-09T10:28:19.498Z,1012.11
2017-11-09T10:29:20.918Z,1012.10
2017-11-09T10:30:22.343Z,1012.10
2017-11-09T10:31:23.763Z,1012.10
2017-11-09T10:32:25.187Z,1012.07
2017-11-09T10:33:26.608Z,1012.06
2017-11-09T10:34:28.021Z,1012.01
2017-11-09T10:35:29.540Z,1012.02
2017-11-09T10:36:30.956Z,1012.02
2017-11-09T10:37:32.377Z,1012.01
2017-11-09T10:38:33.802Z,1011.96
2017-11-09T10:39:35.231Z,1012.02
2017-11-09T10:40:36.656Z,1011.97
2017-11-09T10:41:38.078Z,1011.97
2017-11-09T10:42:39.592Z,1011.97
2017-11-09T10:43:41.009Z,1011.99
2017-11-09T10:44:42.434Z,1011.93
2017-11-09T10:45:43.864Z,1011.87
2017-11-09T10:46:45.272Z,1011.90
2017-11-09T10:47:46.697Z,1011.84
2017-11-09T10:48:48.129Z,1011.83
2017-11-09T10:49:49.580Z,1011.83
2017-11-09T10:50:51.004Z,1011.78
2017-11-09T10:51:52.431Z,1011.78
2017-11-09T10:52:53.853Z,1011.81
2017-11-09T10:53:55.269Z,1011.76
2017-11-09T10:54:56.691Z,1011.78
2017-11-09T10:55:58.180Z,1011.74
2017-11-09T10:56:59.603Z,1011.76
2017-11-09T10:58:01.031Z,1011.80
2017-11-09T10:59:02.449Z,1011.84
2017-11-09T11:00:03.877Z,1011.86
2017-11-09T11:01:05.295Z,1011.87
2017-11-09T11:02:06.719Z,1011.89
2017-11-09T11:03:08.224Z,1011.90
2017-11-09T11:04:09.645Z,1011.88
2017-11-09T11:05:11.070Z,1011.90
2017-11-09T11:06:12.538Z,1011.95
2017-11-09T11:07:13.958Z,1011.93
2017-11-09T11:08:15.387Z,1011.96
2017-11-09T11:09:16.845Z,1011.97
2017-11-09T11:10:18.324Z,1011.90
2017-11-09T11:11:19.744Z,1011.92
2017-11-09T11:12:21.178Z,1011.88
2017-11-09T11:13:22.600Z,1011.90
2017-11-09T11:14:24.025Z,1011.86
2017-11-09T11:15:25.440Z,1011.86
2017-11-09T11:16:26.866Z,1011.90
2017-11-09T11:17:28.393Z,1011.87
2017-11-09T11:18:29.823Z,1011.89
2017-11-09T11:19:31.251Z,1011.83
2017-11-09T11:20:32.668Z,1011.84
2017-11-09T11:21:34.100Z,1011.85
2017-11-09T11:22:35.523Z,1011.73
2017-11-09T11:23:36.945Z,1011.76
2017-11-09T11:24:38.380Z,1011.79
2017-11-09T11:25:39.803Z,1011.71
2017-11-09T11:26:41.228Z,1011.69
2017-11-09T11:27:42.664Z,1011.69
2017-11-09T11:28:44.067Z,1011.68
2017-11-09T11:29:45.501Z,1011.65
2017-11-09T11:30:46.924Z,1011.72
2017-11-09T11:31:48.351Z,1011.72
2017-11-09T11:32:49.771Z,1011.74
2017-11-09T11:33:51.199Z,1011.75
2017-11-09T11:34:52.633Z,1011.75
2017-11-09T11:35:54.134Z,1011.74
2017-11-09T11:36:55.561Z,1011.73
2017-11-09T11:37:56.994Z,1011.75
2017-11-09T11:38:58.415Z,1011.71
2017-11-09T11:39:59.845Z,1011.75
2017-11-09T11:41:01.264Z,1011.70
2017-11-09T11:42:02.687Z,1011.74
2017-11-09T11:43:04.109Z,1011.72
2017-11-09T11:44:05.536Z,1011.74
2017-11-09T11:45:06.976Z,1011.72
2017-11-09T11:46:08.400Z,1011.74
2017-11-09T11:47:09.827Z,1011.74
2017-11-09T11:48:11.272Z,1011.67
2017-11-09T11:49:12.713Z,1011.76
2017-11-09T11:50:14.136Z,1011.72
2017-11-09T11:51:15.562Z,1011.69
2017-11-09T11:52:17.003Z,1011.71
2017-11-09T11:53:18.423Z,1011.64
2017-11-09T11:54:19.858Z,1011.70
2017-11-09T11:55:21.296Z,1011.74
2017-11-09T11:56:22.715Z,1011.71
2017-11-09T11:57:24.146Z,1011.71
2017-11-09T11:58:25.573Z,1011.73
2017-11-09T11:59:27.002Z,1011.69
2017-11-09T12:00:28.424Z,1011.63
2017-11-09T12:01:30.526Z,1011.64
2017-11-09T12:02:31.245Z,1011.59
2017-11-09T12:03:32.661Z,1011.58
2017-11-09T12:04:34.089Z,1011.52
2017-11-09T12:05:35.513Z,1011.61
2017-11-09T12:06:36.939Z,1011.65
2017-11-09T12:07:38.359Z,1011.63
2017-11-09T12:08:39.784Z,1011.62
2017-11-09T12:09:41.208Z,1011.60
2017-11-09T12:10:42.629Z,1011.55
2017-11-09T12:11:44.059Z,1011.54
2017-11-09T12:12:45.481Z,1011.55
2017-11-09T12:13:47.650Z,1011.51
2017-11-09T12:14:49.027Z,1011.51
2017-11-09T12:15:50.456Z,1011.56
2017-11-09T12:16:51.883Z,1011.56
2017-11-09T12:17:53.310Z,1011.55
2017-11-09T12:18:54.738Z,1011.59
2017-11-09T12:19:56.174Z,1011.55
2017-11-09T12:20:57.595Z,1011.59
2017-11-09T12:21:59.024Z,1011.61
2017-11-09T12:23:00.454Z,1011.67